Time;durP1;ratioP1;P1;durP2;ratioP2;P2;SDS_P1;SDS_P2;PMS_P1;PMS_P2;Temp;Humidity;BMP_temperature;BMP_pressure;BME280_temperature;BME280_humidity;BME280_pressure;Samples;Min_cycle;Max_cycle;Signal;HPM_P1;HPM_P2
2021/01/20 00:01:17;;;;;;;181.35;76.53;;;;;;;-6.06;33.16;101208.62;1881728;76;21069;-77
2021/01/20 00:03:46;;;;;;;156.57;67.10;;;;;;;-5.90;33.02;101209.97;1881405;76;21170;-78
2021/01/20 00:06:16;;;;;;;155.45;67.90;;;;;;;-5.75;33.02;101207.44;1881609;76;21334;-77
2021/01/20 00:08:44;;;;;;;156.30;65.97;;;;;;;-5.62;32.85;101201.03;1881006;76;21188;-77
2021/01/20 00:11:12;;;;;;;144.55;64.17;;;;;;;-5.51;32.64;101205.12;1881706;76;21460;-76
2021/01/20 00:13:41;;;;;;;145.95;61.30;;;;;;;-5.42;32.44;101202.28;1881628;76;21173;-76
2021/01/20 00:16:09;;;;;;;145.38;67.05;;;;;;;-5.39;32.29;101199.60;1881220;76;21197;-79
2021/01/20 00:18:39;;;;;;;133.05;57.55;;;;;;;-5.33;32.19;101202.05;1881542;76;21156;-76
2021/01/20 00:21:07;;;;;;;141.40;63.28;;;;;;;-5.22;32.01;101207.87;1881336;76;21676;-76
2021/01/20 00:23:35;;;;;;;117.67;53.33;;;;;;;-5.18;31.89;101203.39;1880973;76;22145;-77
2021/01/20 00:26:02;;;;;;;127.60;54.48;;;;;;;-5.18;31.71;101198.17;1881049;76;21148;-77
2021/01/20 00:28:30;;;;;;;121.67;54.88;;;;;;;-5.25;31.67;101192.27;1881235;76;21635;-76
2021/01/20 00:30:58;;;;;;;106.70;48.73;;;;;;;-5.25;31.64;101188.35;1881414;76;21776;-77
2021/01/20 00:33:28;;;;;;;118.80;51.37;;;;;;;-5.30;31.64;101188.92;1881114;76;21173;-76
2021/01/20 00:35:55;;;;;;;109.65;49.73;;;;;;;-5.38;31.78;101189.11;1881287;76;21217;-77
2021/01/20 00:38:25;;;;;;;107.63;48.55;;;;;;;-5.44;31.80;101184.51;1881849;76;21207;-77
2021/01/20 00:40:52;;;;;;;114.30;49.48;;;;;;;-5.47;31.82;101184.58;1881641;76;21101;-76
2021/01/20 00:43:20;;;;;;;114.52;50.52;;;;;;;-5.52;31.95;101186.00;1881546;76;21750;-76
2021/01/20 00:45:48;;;;;;;108.03;47.25;;;;;;;-5.49;31.98;101188.99;1881550;76;21164;-77
2021/01/20 00:48:16;;;;;;;119.30;50.05;;;;;;;-5.51;32.04;101186.85;1881548;76;21037;-77
2021/01/20 00:50:45;;;;;;;102.87;46.02;;;;;;;-5.47;32.06;101193.27;1881485;76;21149;-77
2021/01/20 00:53:13;;;;;;;109.00;46.75;;;;;;;-5.42;32.06;101189.23;1881458;76;21145;-77
2021/01/20 00:55:41;;;;;;;103.78;46.55;;;;;;;-5.37;32.00;101188.66;1881468;76;21773;-77
2021/01/20 00:58:10;;;;;;;103.62;45.92;;;;;;;-5.34;32.06;101189.89;1881566;76;21121;-76
2021/01/20 01:00:39;;;;;;;102.40;49.73;;;;;;;-5.25;31.93;101198.80;1881418;76;21169;-77
2021/01/20 01:03:06;;;;;;;95.42;44.38;;;;;;;-5.17;31.81;101200.77;1881491;76;21177;-78
2021/01/20 01:05:35;;;;;;;100.53;44.38;;;;;;;-5.06;31.66;101202.23;1852401;76;21189;-78
2021/01/20 01:08:04;;;;;;;104.35;50.88;;;;;;;-5.02;31.62;101207.78;1881635;76;21783;-77
2021/01/20 01:10:34;;;;;;;105.43;46.88;;;;;;;-5.00;31.54;101204.66;1880453;76;21180;-77
2021/01/20 01:13:04;;;;;;;101.40;47.67;;;;;;;-5.00;31.42;101204.22;1872763;76;21148;-77
2021/01/20 01:15:33;;;;;;;106.75;46.98;;;;;;;-5.07;31.31;101199.22;1881245;76;21145;-77
2021/01/20 01:18:02;;;;;;;105.25;48.00;;;;;;;-5.22;31.33;101192.20;1825482;76;21117;-77
2021/01/20 01:20:31;;;;;;;121.13;53.73;;;;;;;-5.37;31.34;101187.36;1881287;76;21183;-77
2021/01/20 01:22:59;;;;;;;111.30;48.30;;;;;;;-5.58;31.49;101190.53;1881428;76;21209;-77
2021/01/20 01:25:28;;;;;;;94.87;43.30;;;;;;;-5.64;31.68;101194.97;1853053;76;21157;-77
2021/01/20 01:27:57;;;;;;;104.15;46.18;;;;;;;-5.62;31.82;101194.51;1881750;76;21195;-77
2021/01/20 01:30:26;;;;;;;96.87;44.80;;;;;;;-5.53;31.82;101195.19;1881406;76;21137;-76
2021/01/20 01:32:54;;;;;;;98.78;43.65;;;;;;;-5.46;31.76;101196.27;1881313;76;21778;-76
2021/01/20 01:35:23;;;;;;;114.17;50.33;;;;;;;-5.42;31.70;101201.83;1880316;76;21188;-77
2021/01/20 01:37:53;;;;;;;103.22;46.20;;;;;;;-5.37;31.67;101199.10;1879337;76;21149;-77
2021/01/20 01:40:26;;;;;;;101.87;45.23;;;;;;;-5.33;31.63;101203.35;1880040;76;21173;-75
2021/01/20 01:43:14;;;;;;;107.00;47.83;;;;;;;-5.28;31.51;101200.63;1881450;76;21138;-76
2021/01/20 01:45:43;;;;;;;98.60;43.98;;;;;;;-5.36;31.39;101207.34;1825643;76;21363;-77
2021/01/20 01:48:11;;;;;;;115.00;52.25;;;;;;;-5.49;31.37;101205.96;1837295;77;21569;-77
2021/01/20 01:50:39;;;;;;;107.25;48.60;;;;;;;-5.71;31.48;101210.39;1867320;76;21437;-75
2021/01/20 01:53:08;;;;;;;120.65;51.75;;;;;;;-5.89;31.77;101216.89;1865118;76;21156;-77
2021/01/20 01:55:53;;;;;;;115.90;48.50;;;;;;;-5.89;31.97;101212.98;1837430;76;21117;-76
2021/01/20 01:58:31;;;;;;;115.10;49.70;;;;;;;-5.81;32.04;101220.64;1864028;76;21883;-76
2021/01/20 02:01:02;;;;;;;118.72;51.92;;;;;;;-5.68;32.03;101227.28;1873199;76;21180;-76
2021/01/20 02:03:31;;;;;;;103.10;46.33;;;;;;;-5.54;31.92;101225.65;1872026;76;21485;-77
2021/01/20 02:05:59;;;;;;;105.87;45.65;;;;;;;-5.42;31.74;101234.91;1869195;76;21727;-77
2021/01/20 02:08:28;;;;;;;107.70;47.53;;;;;;;-5.40;31.58;101228.77;1869841;76;21484;-76
2021/01/20 02:11:39;;;;;;;90.77;41.53;;;;;;;-5.40;31.48;101227.92;1873396;76;21365;-77
2021/01/20 02:14:36;;;;;;;96.05;41.73;;;;;;;-5.41;31.43;101226.18;1863908;76;21160;-77
2021/01/20 02:17:37;;;;;;;88.07;41.25;;;;;;;-5.36;31.39;101228.22;1867645;76;21096;-76
2021/01/20 02:20:34;;;;;;;97.62;46.00;;;;;;;-5.33;31.32;101229.47;1870493;76;21188;-76
2021/01/20 02:23:09;;;;;;;93.33;43.25;;;;;;;-5.32;31.28;101228.56;1873239;76;21113;-75
2021/01/20 02:26:12;;;;;;;95.03;43.65;;;;;;;-5.30;31.20;101228.54;1836990;76;21774;-77
2021/01/20 02:29:33;;;;;;;102.38;45.70;;;;;;;-5.44;31.21;101227.58;1747930;82;21242;-78
2021/01/20 02:32:15;;;;;;;103.93;47.67;;;;;;;-5.43;31.29;101230.14;1781685;78;23358;-79
2021/01/20 02:34:44;;;;;;;99.77;45.12;;;;;;;-5.48;31.26;101232.47;1738037;81;21218;-79
2021/01/20 02:37:12;;;;;;;97.20;45.92;;;;;;;-5.50;31.32;101235.09;1764150;80;21340;-78
2021/01/20 02:39:51;;;;;;;102.30;48.13;;;;;;;-5.50;31.35;101230.33;1764905;80;21212;-75
2021/01/20 02:42:23;;;;;;;117.72;45.03;;;;;;;-5.45;31.30;101231.06;1790346;80;21137;-77
2021/01/20 02:44:53;;;;;;;99.90;46.68;;;;;;;-5.47;31.18;101238.09;1792076;80;21141;-77
2021/01/20 02:47:25;;;;;;;114.05;50.05;;;;;;;-5.60;31.18;101244.05;1791103;80;21646;-76
2021/01/20 02:49:56;;;;;;;107.40;47.93;;;;;;;-5.73;31.29;101251.30;1792675;80;21386;-76
2021/01/20 02:52:51;;;;;;;112.75;47.00;;;;;;;-5.79;31.37;101253.20;1792706;80;21189;-76
2021/01/20 02:55:36;;;;;;;109.97;46.83;;;;;;;-5.80;31.47;101251.50;1792907;80;21196;-77
2021/01/20 02:58:27;;;;;;;119.08;51.85;;;;;;;-5.81;31.59;101257.17;1715171;80;21152;-75
2021/01/20 03:01:13;;;;;;;99.80;44.48;;;;;;;-5.78;31.54;101258.83;1669107;85;21177;-78
2021/01/20 03:03:42;;;;;;;108.20;49.10;;;;;;;-5.78;31.56;101257.52;1754552;80;21746;-78
2021/01/20 03:06:10;;;;;;;101.97;46.92;;;;;;;-5.79;31.60;101252.76;1763970;80;21149;-77
2021/01/20 03:08:39;;;;;;;104.27;45.90;;;;;;;-5.81;31.63;101251.95;1763580;80;21117;-77
2021/01/20 03:11:06;;;;;;;109.60;50.88;;;;;;;-5.81;31.72;101251.95;1763942;80;21494;-76
2021/01/20 03:13:36;;;;;;;101.10;44.65;;;;;;;-5.76;31.83;101248.78;1792677;80;21604;-77
2021/01/20 03:16:05;;;;;;;109.05;45.35;;;;;;;-5.69;31.73;101248.18;1793009;80;21665;-76
2021/01/20 03:18:33;;;;;;;102.87;47.58;;;;;;;-5.71;31.55;101238.23;1764387;80;21172;-76
2021/01/20 03:21:02;;;;;;;103.60;46.37;;;;;;;-5.82;31.63;101238.47;1792892;80;21177;-77
2021/01/20 03:23:29;;;;;;;113.77;49.95;;;;;;;-5.92;31.76;101237.00;1792849;80;21156;-77
2021/01/20 03:25:56;;;;;;;116.88;52.73;;;;;;;-6.00;31.85;101236.31;1792946;80;21176;-75
2021/01/20 03:28:24;;;;;;;108.10;48.50;;;;;;;-6.07;31.97;101234.75;1792633;80;21383;-76
2021/01/20 03:30:51;;;;;;;111.83;49.77;;;;;;;-6.15;32.04;101233.61;1792563;80;21192;-76
2021/01/20 03:33:20;;;;;;;111.22;48.98;;;;;;;-6.25;32.10;101236.86;1792775;80;21157;-76
2021/01/20 03:35:49;;;;;;;110.32;47.15;;;;;;;-6.30;32.23;101234.80;1792832;80;21450;-76
2021/01/20 03:38:17;;;;;;;109.90;48.80;;;;;;;-6.30;32.32;101240.02;1793073;80;21476;-76
2021/01/20 03:40:44;;;;;;;109.22;47.65;;;;;;;-6.28;32.31;101242.12;1793144;80;21322;-77
2021/01/20 03:43:11;;;;;;;110.72;46.53;;;;;;;-6.25;32.24;101248.59;1792645;80;21085;-78
2021/01/20 03:45:39;;;;;;;108.00;46.95;;;;;;;-6.26;32.26;101246.02;1792362;80;21176;-77
2021/01/20 03:48:07;;;;;;;114.92;51.30;;;;;;;-6.27;32.30;101247.75;1792173;80;21196;-77
2021/01/20 03:50:35;;;;;;;111.83;47.45;;;;;;;-6.25;32.27;101256.41;1791767;80;21219;-76
2021/01/20 03:53:03;;;;;;;114.80;53.83;;;;;;;-6.27;32.28;101254.27;1788668;80;21421;-77
2021/01/20 03:55:30;;;;;;;115.05;52.48;;;;;;;-6.33;32.28;101258.31;1782719;80;21196;-76
2021/01/20 03:57:58;;;;;;;114.92;51.80;;;;;;;-6.35;32.31;101266.63;1786812;80;21165;-77
2021/01/20 04:00:25;;;;;;;110.10;52.33;;;;;;;-6.37;32.32;101259.27;1760989;81;21172;-77
2021/01/20 04:02:53;;;;;;;112.20;52.30;;;;;;;-6.42;32.36;101251.98;1761143;81;21177;-76
2021/01/20 04:05:24;;;;;;;134.37;63.10;;;;;;;-6.48;32.47;101259.49;1781787;80;21380;-79
2021/01/20 04:07:51;;;;;;;127.47;58.17;;;;;;;-6.56;32.49;101261.39;1792003;80;21172;-77
2021/01/20 04:10:20;;;;;;;127.65;57.50;;;;;;;-6.61;32.71;101261.92;1792211;80;21181;-78
2021/01/20 04:12:47;;;;;;;130.27;58.05;;;;;;;-6.58;32.76;101263.63;1792024;80;21200;-77
2021/01/20 04:15:15;;;;;;;144.62;62.27;;;;;;;-6.53;32.79;101260.03;1792171;80;21145;-77
2021/01/20 04:17:43;;;;;;;145.10;63.92;;;;;;;-6.42;32.76;101258.50;1792449;80;21941;-78
2021/01/20 04:20:13;;;;;;;130.72;58.85;;;;;;;-6.32;32.67;101253.50;1791099;80;21180;-77
2021/01/20 04:22:40;;;;;;;155.18;66.10;;;;;;;-6.32;32.60;101252.20;1792124;80;21129;-77
2021/01/20 04:25:11;;;;;;;146.87;65.45;;;;;;;-6.41;32.59;101251.09;1791841;80;21122;-77
2021/01/20 04:27:38;;;;;;;157.00;70.95;;;;;;;-6.53;32.67;101253.97;1791929;80;21172;-76
2021/01/20 04:30:08;;;;;;;149.87;67.75;;;;;;;-6.57;32.73;101257.52;1791198;80;21306;-79
2021/01/20 04:32:36;;;;;;;135.40;61.48;;;;;;;-6.60;32.78;101253.66;1784308;80;21125;-76
2021/01/20 04:35:06;;;;;;;124.82;56.25;;;;;;;-6.66;32.81;101251.59;1761885;80;21136;-77
2021/01/20 04:37:34;;;;;;;154.35;64.10;;;;;;;-6.71;32.88;101257.34;1760628;81;21212;-75
2021/01/20 04:40:04;;;;;;;239.68;88.95;;;;;;;-6.68;33.12;101266.38;1760255;81;21181;-75
2021/01/20 04:42:33;;;;;;;190.03;73.52;;;;;;;-6.55;33.05;101273.52;1760263;81;21498;-77
2021/01/20 04:45:00;;;;;;;193.75;70.12;;;;;;;-6.37;32.90;101272.30;1759925;81;21169;-75
2021/01/20 04:47:28;;;;;;;185.65;72.12;;;;;;;-6.14;32.62;101271.37;1760736;81;21197;-77
2021/01/20 04:49:57;;;;;;;185.57;74.20;;;;;;;-6.07;32.41;101269.95;1764296;80;21220;-76
2021/01/20 04:52:25;;;;;;;191.53;72.65;;;;;;;-6.00;32.19;101270.22;1718371;80;21177;-78
2021/01/20 04:54:53;;;;;;;195.40;79.62;;;;;;;-5.98;32.04;101277.13;1792439;80;21816;-74
2021/01/20 04:57:22;;;;;;;200.82;77.15;;;;;;;-5.94;32.00;101281.39;1792462;80;21592;-79
2021/01/20 04:59:50;;;;;;;197.68;78.72;;;;;;;-5.88;31.84;101274.69;1792338;80;21157;-76
2021/01/20 05:02:17;;;;;;;195.12;81.60;;;;;;;-5.87;31.76;101277.70;1792238;80;21169;-77
2021/01/20 05:04:46;;;;;;;205.55;85.00;;;;;;;-5.87;31.60;101275.55;1764232;80;21478;-77
2021/01/20 05:07:14;;;;;;;216.85;89.58;;;;;;;-5.93;31.61;101280.94;1792234;80;21225;-79
2021/01/20 05:09:41;;;;;;;219.80;89.90;;;;;;;-5.97;31.60;101281.90;1791688;80;21612;-77
2021/01/20 05:12:10;;;;;;;215.07;83.42;;;;;;;-6.00;31.59;101284.11;1790919;80;21844;-77
2021/01/20 05:14:43;;;;;;;221.62;87.05;;;;;;;-5.98;31.53;101290.63;1759206;80;21180;-76
2021/01/20 05:17:11;;;;;;;200.60;74.20;;;;;;;-5.96;31.44;101288.83;1775206;80;21515;-77
2021/01/20 05:19:40;;;;;;;218.55;79.45;;;;;;;-6.05;31.32;101281.20;1775686;80;22167;-78
2021/01/20 05:22:09;;;;;;;193.10;77.25;;;;;;;-6.24;31.37;101283.34;1775334;80;21178;-76
2021/01/20 05:24:37;;;;;;;211.32;82.62;;;;;;;-6.42;31.52;101287.17;1775198;80;21173;-77
2021/01/20 05:27:05;;;;;;;208.87;84.15;;;;;;;-6.52;31.65;101290.86;1775028;80;21712;-75
2021/01/20 05:29:33;;;;;;;204.68;76.53;;;;;;;-6.64;31.72;101298.00;1774842;80;21394;-79
2021/01/20 05:32:18;;;;;;;231.38;94.22;;;;;;;-6.81;31.83;101300.08;1778840;80;21793;-75
2021/01/20 05:35:09;;;;;;;249.47;97.78;;;;;;;-6.97;31.98;101302.53;1781674;80;21221;-77
2021/01/20 05:37:45;;;;;;;230.15;92.82;;;;;;;-7.04;32.20;101306.11;1767865;80;21165;-76
2021/01/20 05:40:18;;;;;;;225.00;89.60;;;;;;;-6.95;32.18;101303.34;1708102;81;21231;-77
2021/01/20 05:42:50;;;;;;;214.40;87.82;;;;;;;-6.86;32.10;101312.30;1760775;80;21098;-77
2021/01/20 05:45:22;;;;;;;212.38;87.97;;;;;;;-6.78;32.01;101303.91;1756830;81;21383;-77
2021/01/20 05:48:09;;;;;;;222.90;88.22;;;;;;;-6.68;31.94;101301.55;1776561;80;21117;-77
2021/01/20 05:50:55;;;;;;;200.15;80.67;;;;;;;-6.59;31.85;101304.43;1768809;80;21114;-77
2021/01/20 05:53:23;;;;;;;179.72;76.17;;;;;;;-6.49;31.79;101305.14;1785365;80;21548;-77
2021/01/20 05:56:04;;;;;;;175.75;71.90;;;;;;;-6.39;31.66;101306.22;1783955;80;21124;-78
2021/01/20 05:58:38;;;;;;;167.35;68.07;;;;;;;-6.33;31.49;101313.06;1753761;81;22287;-78
2021/01/20 06:01:11;;;;;;;160.93;66.47;;;;;;;-6.35;31.41;101304.42;1753771;81;21216;-78
2021/01/20 06:03:39;;;;;;;154.42;66.90;;;;;;;-6.40;31.49;101304.52;1762724;80;21185;-78
2021/01/20 06:06:07;;;;;;;147.40;63.02;;;;;;;-6.48;31.45;101302.94;1769393;80;21555;-79
2021/01/20 06:08:36;;;;;;;165.35;67.92;;;;;;;-6.64;31.56;101299.30;1776516;80;21165;-78
2021/01/20 06:11:04;;;;;;;158.65;68.05;;;;;;;-6.76;31.70;101300.86;1763213;80;21399;-79
2021/01/20 06:13:34;;;;;;;148.65;68.20;;;;;;;-6.86;31.98;101304.94;1761690;80;21876;-78
2021/01/20 06:16:24;;;;;;;173.72;72.45;;;;;;;-6.86;32.17;101311.45;1742331;80;21287;-78
2021/01/20 06:18:59;;;;;;;190.10;80.15;;;;;;;-6.82;32.27;101317.88;1771499;80;21217;-79
2021/01/20 06:21:31;;;;;;;211.37;91.57;;;;;;;-6.72;32.33;101322.48;1764578;80;21153;-79
2021/01/20 06:24:44;;;;;;;197.20;85.30;;;;;;;-6.63;32.39;101318.43;1721195;81;21808;-80
2021/01/20 06:27:31;;;;;;;211.47;87.60;;;;;;;-6.53;32.45;101323.02;1764980;80;21237;-76
2021/01/20 06:30:12;;;;;;;183.32;80.28;;;;;;;-6.37;32.43;101327.03;1761479;80;21179;-77
2021/01/20 06:32:46;;;;;;;202.07;84.22;;;;;;;-6.24;32.37;101332.42;1770929;80;21484;-77
2021/01/20 06:35:17;;;;;;;184.40;80.10;;;;;;;-6.16;32.38;101328.37;1737866;81;21198;-77
2021/01/20 06:37:47;;;;;;;180.48;84.83;;;;;;;-6.15;32.32;101330.08;1769367;80;21208;-78
2021/01/20 06:40:23;;;;;;;164.25;73.72;;;;;;;-6.11;32.53;101326.97;1762132;80;21971;-78
2021/01/20 06:42:53;;;;;;;158.80;70.75;;;;;;;-6.08;32.51;101333.44;1767064;80;21206;-77
2021/01/20 06:45:26;;;;;;;158.97;72.75;;;;;;;-6.04;32.67;101340.28;1766593;80;21207;-78
2021/01/20 06:48:03;;;;;;;173.28;73.78;;;;;;;-5.93;32.69;101339.19;1766183;80;21220;-80
2021/01/20 06:50:54;;;;;;;171.53;76.28;;;;;;;-5.94;32.53;101343.14;1768463;80;21415;-78
2021/01/20 06:53:24;;;;;;;164.72;71.55;;;;;;;-6.04;32.77;101348.11;1780656;80;22082;-77
2021/01/20 06:55:52;;;;;;;176.42;73.17;;;;;;;-5.92;32.78;101350.47;1781736;80;21230;-79
2021/01/20 06:58:21;;;;;;;165.55;72.87;;;;;;;-5.89;32.58;101354.30;1751259;79;21212;-80
2021/01/20 07:01:12;;;;;;;181.22;77.03;;;;;;;-5.97;32.52;101356.23;1749487;80;21188;-77
2021/01/20 07:03:48;;;;;;;197.80;83.27;;;;;;;-6.04;32.61;101363.76;1755039;80;21798;-77
2021/01/20 07:06:40;;;;;;;221.40;88.90;;;;;;;-6.12;32.69;101357.86;1769666;80;21189;-76
2021/01/20 07:09:11;;;;;;;219.68;86.25;;;;;;;-6.16;32.76;101359.66;1779149;79;21389;-77
2021/01/20 07:12:07;;;;;;;211.52;86.95;;;;;;;-6.08;32.96;101359.52;1763686;80;21176;-77
2021/01/20 07:14:35;;;;;;;212.38;86.25;;;;;;;-5.85;32.94;101361.17;1778080;80;21220;-75
2021/01/20 07:17:05;;;;;;;284.62;117.55;;;;;;;-5.55;33.02;101356.17;1790390;80;22792;-78
2021/01/20 07:19:33;;;;;;;255.32;105.25;;;;;;;-5.23;32.96;101365.42;1725084;80;21224;-79
2021/01/20 07:22:01;;;;;;;311.68;121.05;;;;;;;-4.93;32.68;101361.23;1775791;80;21173;-77
2021/01/20 07:24:29;;;;;;;295.25;122.50;;;;;;;-4.62;32.44;101360.47;1750243;81;21212;-79
2021/01/20 07:27:10;;;;;;;272.05;110.92;;;;;;;-4.37;32.13;101361.97;1781615;80;21699;-77
2021/01/20 07:29:39;;;;;;;262.02;104.58;;;;;;;-4.18;31.84;101359.28;1768785;79;21371;-76
2021/01/20 07:32:08;;;;;;;273.55;110.97;;;;;;;-4.02;31.66;101375.39;1768206;80;21077;-77
2021/01/20 07:34:38;;;;;;;268.50;114.72;;;;;;;-3.89;31.59;101373.30;1770523;80;21185;-75
2021/01/20 07:37:15;;;;;;;266.98;109.27;;;;;;;-3.72;31.53;101374.12;1768111;79;21805;-77
2021/01/20 07:39:44;;;;;;;266.25;107.55;;;;;;;-3.59;31.40;101378.07;1767901;80;21205;-78
2021/01/20 07:42:15;;;;;;;276.92;118.57;;;;;;;-3.46;31.31;101379.42;1772538;80;21207;-81
2021/01/20 07:44:47;;;;;;;232.83;97.15;;;;;;;-3.35;31.25;101377.80;1780830;80;21221;-75
2021/01/20 07:47:21;;;;;;;228.15;96.30;;;;;;;-3.27;31.20;101381.05;1766335;80;21289;-76
2021/01/20 07:49:53;;;;;;;205.37;92.53;;;;;;;-3.22;30.96;101375.21;1760883;81;21579;-77
2021/01/20 07:52:21;;;;;;;203.75;90.92;;;;;;;-3.27;30.84;101384.98;1764658;80;21098;-75
2021/01/20 07:54:50;;;;;;;196.65;88.33;;;;;;;-3.40;31.08;101390.19;1776127;79;21666;-78
2021/01/20 07:57:19;;;;;;;186.47;80.28;;;;;;;-3.39;31.24;101380.96;1783721;79;21212;-75
2021/01/20 08:00:04;;;;;;;149.27;66.70;;;;;;;-3.30;30.97;101378.97;1789064;79;21153;-77
2021/01/20 08:02:34;;;;;;;173.57;75.37;;;;;;;-3.37;30.73;101385.69;1751893;79;21206;-76
2021/01/20 08:05:06;;;;;;;205.52;93.75;;;;;;;-3.43;30.94;101382.41;1775225;80;21690;-77
2021/01/20 08:07:34;;;;;;;182.70;78.07;;;;;;;-3.45;30.97;101376.34;1761266;80;21798;-75
2021/01/20 08:10:06;;;;;;;166.90;70.78;;;;;;;-3.41;31.20;101386.68;1760077;81;21612;-76
2021/01/20 08:12:34;;;;;;;157.85;77.70;;;;;;;-3.26;31.30;101388.00;1776644;80;21252;-77
2021/01/20 08:15:03;;;;;;;174.45;81.55;;;;;;;-3.09;31.05;101388.33;1780692;80;21208;-77
2021/01/20 08:17:33;;;;;;;152.78;70.67;;;;;;;-2.92;31.05;101389.54;1760731;80;21291;-77
2021/01/20 08:20:00;;;;;;;138.45;65.52;;;;;;;-2.72;30.94;101398.94;1771410;80;21215;-75
2021/01/20 08:22:28;;;;;;;133.05;61.98;;;;;;;-2.51;30.67;101400.42;1774006;80;21204;-79
2021/01/20 08:24:57;;;;;;;134.57;61.77;;;;;;;-2.35;30.58;101403.80;1773648;80;21223;-75
2021/01/20 08:27:28;;;;;;;118.22;57.38;;;;;;;-2.15;30.58;101407.03;1768375;80;21220;-76
2021/01/20 08:29:58;;;;;;;112.03;51.98;;;;;;;-1.91;30.50;101402.66;1769349;80;21208;-80
2021/01/20 08:32:26;;;;;;;109.48;52.38;;;;;;;-1.68;30.34;101403.59;1727048;81;22572;-76
2021/01/20 08:34:55;;;;;;;101.15;47.38;;;;;;;-1.44;30.04;101405.78;1772060;80;21228;-81
2021/01/20 08:37:37;;;;;;;84.25;41.08;;;;;;;-1.37;29.34;101402.83;1771666;80;21189;-78
2021/01/20 08:40:07;;;;;;;88.70;43.08;;;;;;;-1.30;29.24;101408.27;1763529;80;21787;-77
2021/01/20 08:42:39;;;;;;;90.62;45.23;;;;;;;-1.36;28.74;101406.34;1771078;80;21660;-78
2021/01/20 08:45:24;;;;;;;97.82;47.67;;;;;;;-1.67;29.25;101408.81;1772858;80;22593;-76
2021/01/20 08:47:59;;;;;;;94.92;47.13;;;;;;;-1.72;29.42;101405.50;1759630;81;21185;-75
2021/01/20 08:50:35;;;;;;;79.87;41.15;;;;;;;-1.68;29.54;101403.16;1765055;80;21470;-74
2021/01/20 08:53:09;;;;;;;104.65;49.40;;;;;;;-1.61;29.59;101403.77;1735086;82;21203;-76
2021/01/20 08:55:41;;;;;;;104.30;49.42;;;;;;;-1.31;29.25;101407.02;1747904;81;21232;-77
2021/01/20 08:58:31;;;;;;;100.38;50.78;;;;;;;-1.26;29.30;101404.22;1766996;79;21210;-78
2021/01/20 09:01:15;;;;;;;112.83;54.77;;;;;;;-1.34;29.22;101400.56;1761028;80;21142;-77
2021/01/20 09:03:55;;;;;;;93.85;41.68;;;;;;;-1.46;29.54;101390.51;1771976;80;21190;-76
2021/01/20 09:06:23;;;;;;;117.35;56.90;;;;;;;-1.61;29.32;101396.75;1784247;79;21096;-80
2021/01/20 09:08:51;;;;;;;136.18;63.00;;;;;;;-2.05;29.47;101393.11;1773707;80;21293;-77
2021/01/20 09:11:18;;;;;;;138.32;69.90;;;;;;;-2.31;30.21;101396.69;1778799;80;21661;-78
2021/01/20 09:13:46;;;;;;;160.65;76.62;;;;;;;-2.44;30.49;101388.83;1773149;80;21217;-76
2021/01/20 09:16:18;;;;;;;160.75;74.87;;;;;;;-2.35;31.12;101387.20;1767120;80;21491;-75
2021/01/20 09:18:46;;;;;;;161.60;77.00;;;;;;;-2.18;31.07;101390.52;1750653;79;21236;-76
2021/01/20 09:21:15;;;;;;;168.80;73.85;;;;;;;-2.01;31.22;101389.47;1739021;81;21254;-76
2021/01/20 09:23:42;;;;;;;147.37;69.60;;;;;;;-1.84;31.29;101385.78;1737341;81;21784;-78
2021/01/20 09:26:10;;;;;;;147.57;72.95;;;;;;;-1.72;30.97;101387.11;1744747;80;21642;-76
2021/01/20 09:28:38;;;;;;;154.78;73.52;;;;;;;-1.78;30.76;101386.01;1750389;81;21216;-77
2021/01/20 09:31:17;;;;;;;137.60;68.40;;;;;;;-1.82;31.02;101387.91;1735576;81;21188;-77
2021/01/20 09:33:50;;;;;;;134.65;60.15;;;;;;;-1.74;31.31;101392.86;1759468;80;21221;-78
2021/01/20 09:36:19;;;;;;;144.53;68.70;;;;;;;-1.59;31.31;101382.23;1761180;80;22371;-77
2021/01/20 09:38:49;;;;;;;113.12;53.63;;;;;;;-1.47;31.16;101383.09;1776752;80;21188;-75
2021/01/20 09:41:17;;;;;;;126.72;60.12;;;;;;;-1.39;30.92;101386.75;1741454;80;21172;-75
2021/01/20 09:43:51;;;;;;;111.37;52.10;;;;;;;-1.41;30.51;101381.98;1771302;80;21687;-76
2021/01/20 09:46:21;;;;;;;103.17;49.53;;;;;;;-1.52;30.69;101377.16;1767513;80;21470;-78
2021/01/20 09:48:49;;;;;;;96.60;45.40;;;;;;;-1.69;30.77;101371.22;1759206;80;21211;-78
2021/01/20 09:51:17;;;;;;;90.30;43.58;;;;;;;-1.79;30.73;101368.08;1765614;80;21222;-77
2021/01/20 09:53:44;;;;;;;84.85;39.98;;;;;;;-1.82;30.97;101367.33;1764438;80;21192;-75
2021/01/20 09:56:12;;;;;;;80.10;40.35;;;;;;;-1.80;30.88;101368.16;1759718;80;21170;-76
2021/01/20 09:58:45;;;;;;;89.62;44.25;;;;;;;-1.71;30.94;101363.02;1769907;80;21588;-76
2021/01/20 10:01:11;;;;;;;87.12;41.63;;;;;;;-1.60;30.91;101359.05;1767066;80;21332;-77
2021/01/20 10:03:44;;;;;;;80.12;38.40;;;;;;;-1.44;30.97;101364.59;1754396;80;21184;-78
2021/01/20 10:06:11;;;;;;;154.10;86.37;;;;;;;-1.24;30.96;101362.48;1770177;80;21185;-76
2021/01/20 10:08:39;;;;;;;81.63;40.67;;;;;;;-0.99;30.75;101362.83;1778490;80;21214;-77
2021/01/20 10:11:08;;;;;;;85.85;41.48;;;;;;;-0.83;30.61;101362.12;1762145;80;21181;-75
2021/01/20 10:13:37;;;;;;;83.52;41.55;;;;;;;-0.91;30.07;101362.03;1771654;80;21204;-77
2021/01/20 10:16:12;;;;;;;86.05;43.33;;;;;;;-0.96;30.17;101356.97;1775527;80;21213;-76
2021/01/20 10:18:45;;;;;;;91.35;44.42;;;;;;;-0.85;30.46;101356.55;1777979;79;21180;-76
2021/01/20 10:21:20;;;;;;;89.17;42.10;;;;;;;-0.73;30.08;101347.27;1767770;80;21170;-77
2021/01/20 10:23:48;;;;;;;78.12;38.83;;;;;;;-0.66;29.76;101355.31;1760340;81;21181;-78
2021/01/20 10:26:16;;;;;;;83.70;41.95;;;;;;;-0.63;29.97;101343.36;1768637;80;21160;-75
2021/01/20 10:28:45;;;;;;;81.22;38.42;;;;;;;-0.58;29.90;101342.23;1746851;80;21258;-76
2021/01/20 10:31:13;;;;;;;87.72;39.10;;;;;;;-0.47;29.84;101339.59;1773639;79;21652;-75
2021/01/20 10:33:42;;;;;;;73.47;37.55;;;;;;;-0.35;29.80;101341.70;1772959;79;21182;-77
2021/01/20 10:36:12;;;;;;;76.92;36.23;;;;;;;-0.36;29.29;101337.37;1770069;79;21319;-77
2021/01/20 10:38:40;;;;;;;77.55;37.90;;;;;;;-0.56;28.92;101335.11;1721276;82;21227;-76
2021/01/20 10:41:08;;;;;;;71.57;35.88;;;;;;;-0.73;29.28;101334.97;1765344;79;21619;-78
2021/01/20 10:43:38;;;;;;;84.60;41.25;;;;;;;-0.73;29.75;101335.43;1769759;79;21209;-79
2021/01/20 10:46:12;;;;;;;70.57;34.55;;;;;;;-0.63;29.96;101331.05;1763105;80;21230;-79
2021/01/20 10:48:47;;;;;;;81.22;38.35;;;;;;;-0.51;29.89;101325.23;1744469;80;21177;-79
2021/01/20 10:51:34;;;;;;;62.20;30.77;;;;;;;-0.37;29.86;101323.79;1725429;82;21242;-80
2021/01/20 10:54:13;;;;;;;63.40;31.95;;;;;;;-0.26;29.25;101328.98;1748671;81;21252;-77
2021/01/20 10:56:47;;;;;;;62.98;29.32;;;;;;;-0.19;29.30;101334.83;1716401;82;21246;-77
2021/01/20 10:59:23;;;;;;;52.38;24.55;;;;;;;-0.17;28.99;101322.92;1724982;81;21260;-77
2021/01/20 11:01:52;;;;;;;54.98;26.75;;;;;;;-0.10;28.77;101326.52;1763716;79;21204;-77
2021/01/20 11:04:26;;;;;;;39.40;19.10;;;;;;;-0.13;28.22;101322.72;1726716;81;21334;-77
2021/01/20 11:06:55;;;;;;;37.98;19.37;;;;;;;-0.21;27.87;101330.10;1769889;79;21224;-75
2021/01/20 11:09:23;;;;;;;24.77;13.45;;;;;;;-0.45;27.76;101320.66;1766605;79;21185;-77
2021/01/20 11:11:53;;;;;;;36.58;16.97;;;;;;;-0.70;27.41;101320.38;1768918;79;21161;-78
2021/01/20 11:14:23;;;;;;;40.28;20.23;;;;;;;-0.99;27.46;101317.66;1769102;79;21204;-77
2021/01/20 11:16:55;;;;;;;55.08;24.90;;;;;;;-1.28;27.86;101322.77;1763827;79;21427;-76
2021/01/20 11:19:23;;;;;;;51.65;22.70;;;;;;;-1.50;28.41;101317.51;1773824;79;21193;-75
2021/01/20 11:21:54;;;;;;;47.93;22.02;;;;;;;-1.50;28.71;101325.39;1773200;79;21204;-75
2021/01/20 11:24:22;;;;;;;57.90;28.25;;;;;;;-1.51;28.59;101322.83;1764664;79;21822;-75